createdAt,value
2018-05-16T00:01:21.791Z,24.00
2018-05-16T00:03:58.612Z,24.00
2018-05-16T00:06:29.122Z,23.25
2018-05-16T00:09:11.624Z,23.00
2018-05-16T00:11:44.454Z,24.25
2018-05-16T00:14:15.680Z,23.75
2018-05-16T00:16:52.563Z,23.75
2018-05-16T00:19:23.699Z,23.75
2018-05-16T00:22:06.334Z,23.00
2018-05-16T00:24:37.233Z,22.25
2018-05-16T00:29:51.483Z,23.75
2018-05-16T00:32:23.416Z,22.50
2018-05-16T00:34:54.260Z,23.00
2018-05-16T00:37:28.006Z,24.00
2018-05-16T00:40:10.364Z,24.00
2018-05-16T00:42:40.812Z,23.75
2018-05-16T00:45:25.341Z,22.50
2018-05-16T00:47:55.944Z,24.50
2018-05-16T00:50:27.664Z,22.25
2018-05-16T00:53:08.596Z,23.25
2018-05-16T00:55:39.377Z,23.25
2018-05-16T00:58:10.063Z,24.75
2018-05-16T01:00:40.618Z,23.25
2018-05-16T01:03:15.270Z,22.75
2018-05-16T01:05:46.724Z,24.75
2018-05-16T01:08:19.195Z,23.25
2018-05-16T01:10:50.916Z,24.00
2018-05-16T01:13:21.337Z,23.50
2018-05-16T01:15:52.270Z,25.00
2018-05-16T01:18:30.644Z,23.50
2018-05-16T01:21:06.600Z,22.75
2018-05-16T01:23:36.880Z,23.00
2018-05-16T01:26:07.615Z,24.75
2018-05-16T01:28:39.820Z,23.75
2018-05-16T01:31:10.819Z,23.00
2018-05-16T01:33:41.774Z,23.25
2018-05-16T01:36:12.276Z,23.00
2018-05-16T01:38:43.043Z,22.75
2018-05-16T01:41:13.298Z,24.50
2018-05-16T01:43:43.998Z,22.75
2018-05-16T01:46:16.129Z,22.75
2018-05-16T01:48:56.032Z,22.75
2018-05-16T01:51:30.182Z,23.25
2018-05-16T01:54:01.063Z,22.75
2018-05-16T01:56:31.650Z,21.50
2018-05-16T01:59:03.705Z,23.00
2018-05-16T02:01:34.749Z,22.00
2018-05-16T02:04:07.789Z,21.75
2018-05-16T02:06:39.058Z,22.75
2018-05-16T02:09:10.483Z,20.75
2018-05-16T02:11:45.971Z,20.00
2018-05-16T02:14:17.377Z,16.00
2018-05-16T02:16:49.911Z,17.25
2018-05-16T02:19:23.555Z,16.25
2018-05-16T02:21:54.738Z,16.25
2018-05-16T02:24:29.439Z,14.75
2018-05-16T02:27:06.822Z,14.75
2018-05-16T02:29:39.566Z,13.50
2018-05-16T02:32:15.710Z,14.75
2018-05-16T02:34:47.856Z,15.25
2018-05-16T02:37:20.863Z,14.50
2018-05-16T02:39:52.463Z,15.25
2018-05-16T02:42:24.896Z,15.00
2018-05-16T02:44:55.219Z,14.00
2018-05-16T02:47:26.135Z,15.50
2018-05-16T02:49:57.241Z,14.00
2018-05-16T02:52:29.459Z,13.75
2018-05-16T02:55:00.185Z,13.75
2018-05-16T02:57:30.592Z,13.25
2018-05-16T03:00:00.963Z,12.00
2018-05-16T03:02:39.863Z,13.00
2018-05-16T03:05:10.614Z,15.75
2018-05-16T03:07:44.403Z,13.75
2018-05-16T03:10:15.834Z,12.75
2018-05-16T03:12:47.002Z,13.00
2018-05-16T03:15:22.446Z,14.75
2018-05-16T03:17:52.970Z,14.25
2018-05-16T03:20:30.708Z,14.75
2018-05-16T03:23:02.575Z,13.00
2018-05-16T03:25:33.372Z,15.75
2018-05-16T03:28:08.871Z,16.00
2018-05-16T03:30:40.472Z,14.75
2018-05-16T03:33:11.215Z,16.25
2018-05-16T03:35:42.368Z,15.50
2018-05-16T03:38:12.896Z,16.25
2018-05-16T03:40:43.178Z,13.00
2018-05-16T03:43:14.728Z,15.75
2018-05-16T03:45:45.462Z,13.75
2018-05-16T03:48:16.028Z,15.75
2018-05-16T03:50:46.628Z,15.00
2018-05-16T03:53:16.936Z,14.75
2018-05-16T03:55:47.475Z,14.25
2018-05-16T03:58:29.109Z,16.25
2018-05-16T04:01:11.693Z,14.50
2018-05-16T04:03:53.339Z,15.50
2018-05-16T04:06:23.898Z,15.00
2018-05-16T04:08:58.136Z,13.25
2018-05-16T04:11:29.106Z,16.25
2018-05-16T04:13:59.784Z,14.75
2018-05-16T04:16:30.375Z,15.25
2018-05-16T04:21:42.515Z,15.25
2018-05-16T04:24:19.165Z,15.00
2018-05-16T04:26:50.218Z,16.00
2018-05-16T04:29:20.718Z,16.25
2018-05-16T04:31:51.893Z,14.75
2018-05-16T04:34:23.553Z,16.00
2018-05-16T04:36:54.350Z,14.75
2018-05-16T04:39:25.586Z,15.00
2018-05-16T04:41:57.574Z,14.75
2018-05-16T04:44:31.404Z,16.00
2018-05-16T04:47:02.682Z,16.00
2018-05-16T04:49:38.258Z,22.75
2018-05-16T04:52:14.497Z,19.25
2018-05-16T04:54:47.212Z,16.75
2018-05-16T04:57:19.433Z,16.25
2018-05-16T04:59:50.025Z,16.00
2018-05-16T05:02:21.477Z,16.00
2018-05-16T05:04:53.289Z,16.25
2018-05-16T05:07:23.729Z,16.00
2018-05-16T05:09:54.278Z,16.25
2018-05-16T05:12:24.807Z,14.50
2018-05-16T05:14:55.879Z,17.25
2018-05-16T05:17:26.763Z,12.50
2018-05-16T05:19:57.370Z,15.25
2018-05-16T05:22:28.108Z,16.00
2018-05-16T05:24:59.174Z,16.50
2018-05-16T05:27:29.928Z,16.25
2018-05-16T05:30:03.640Z,16.25
2018-05-16T05:32:34.179Z,16.75
2018-05-16T05:35:05.474Z,16.75
2018-05-16T05:37:35.987Z,16.75
2018-05-16T05:40:06.457Z,17.25
2018-05-16T05:42:36.938Z,16.00
2018-05-16T05:45:08.213Z,18.00
2018-05-16T05:47:39.231Z,18.00
2018-05-16T05:50:11.087Z,18.75
2018-05-16T05:52:46.002Z,17.00
2018-05-16T05:55:16.988Z,17.00
2018-05-16T05:57:47.351Z,16.00
2018-05-16T06:00:25.619Z,18.00
2018-05-16T06:05:28.188Z,15.75
2018-05-16T06:07:58.536Z,17.50
2018-05-16T06:10:29.219Z,17.00
2018-05-16T06:13:00.267Z,14.75
2018-05-16T06:15:31.490Z,17.75
2018-05-16T06:18:02.838Z,15.00
2018-05-16T06:20:35.163Z,17.75
2018-05-16T06:25:48.093Z,17.50
2018-05-16T06:28:18.819Z,15.00
2018-05-16T06:30:56.845Z,16.75
2018-05-16T06:33:30.262Z,15.50
2018-05-16T06:36:02.963Z,17.25
2018-05-16T06:38:38.805Z,15.00
2018-05-16T06:41:12.929Z,17.25
2018-05-16T06:43:43.447Z,15.00
2018-05-16T06:46:16.756Z,14.00
2018-05-16T06:48:56.081Z,13.50
2018-05-16T06:51:41.570Z,14.50
2018-05-16T06:54:17.193Z,15.75
2018-05-16T06:56:49.760Z,15.00
2018-05-16T06:59:27.842Z,16.25
2018-05-16T07:02:02.507Z,16.00
2018-05-16T07:04:40.094Z,19.25
2018-05-16T07:07:14.021Z,18.50
2018-05-16T07:09:46.273Z,17.75
2018-05-16T07:12:18.645Z,16.00
2018-05-16T07:14:49.476Z,15.75
2018-05-16T07:17:20.939Z,15.50
2018-05-16T07:19:52.785Z,18.00
2018-05-16T07:22:24.133Z,17.50
2018-05-16T07:24:55.102Z,17.50
2018-05-16T07:27:31.830Z,15.75
2018-05-16T07:30:19.814Z,17.75
2018-05-16T07:32:51.094Z,19.00
2018-05-16T07:35:23.812Z,16.50
2018-05-16T07:37:54.668Z,17.25
2018-05-16T07:40:39.318Z,15.25
2018-05-16T07:43:17.447Z,17.00
2018-05-16T07:45:49.387Z,18.00
2018-05-16T07:48:28.413Z,17.50
2018-05-16T07:51:01.146Z,16.50
2018-05-16T07:53:31.918Z,16.75
2018-05-16T07:56:04.704Z,16.25
2018-05-16T07:58:38.588Z,18.50
2018-05-16T08:01:15.122Z,15.75
2018-05-16T08:03:48.267Z,17.00
2018-05-16T08:06:28.169Z,18.75
2018-05-16T08:09:00.583Z,19.75
2018-05-16T08:11:33.857Z,17.25
2018-05-16T08:14:04.779Z,16.75
2018-05-16T08:16:38.281Z,16.50
2018-05-16T08:19:10.425Z,16.75
2018-05-16T08:21:43.148Z,17.50
2018-05-16T08:24:17.564Z,20.75
2018-05-16T08:26:50.666Z,17.50
2018-05-16T08:29:22.436Z,17.25
2018-05-16T08:31:53.641Z,16.75
2018-05-16T08:34:47.053Z,16.00
2018-05-16T08:37:19.526Z,16.25
2018-05-16T08:39:50.859Z,18.50
2018-05-16T08:42:22.507Z,20.00
2018-05-16T08:44:54.271Z,18.50
2018-05-16T08:47:29.326Z,17.00
2018-05-16T08:50:01.684Z,17.00
2018-05-16T08:52:32.391Z,16.00
2018-05-16T08:55:09.031Z,15.25
2018-05-16T08:57:42.592Z,16.25
2018-05-16T09:00:21.142Z,16.50
2018-05-16T09:02:52.216Z,19.00
2018-05-16T09:05:23.548Z,19.75
2018-05-16T09:07:54.693Z,19.75
2018-05-16T09:10:26.196Z,18.00
2018-05-16T09:13:02.169Z,17.00
2018-05-16T09:15:44.347Z,20.75
2018-05-16T09:18:16.272Z,18.25
2018-05-16T09:20:47.010Z,17.75
2018-05-16T09:26:07.776Z,20.75
2018-05-16T09:28:39.067Z,19.75
2018-05-16T09:31:09.543Z,18.50
2018-05-16T09:33:43.665Z,20.00
2018-05-16T09:36:15.086Z,18.00
2018-05-16T09:38:46.334Z,16.00
2018-05-16T09:41:18.747Z,19.50
2018-05-16T09:43:50.588Z,19.75
2018-05-16T09:46:21.192Z,19.00
2018-05-16T09:48:52.462Z,19.00
2018-05-16T09:51:23.489Z,19.00
2018-05-16T09:53:57.586Z,20.00
2018-05-16T09:56:35.268Z,18.25
2018-05-16T09:59:08.989Z,19.00
2018-05-16T10:01:40.043Z,20.25
2018-05-16T10:04:12.910Z,20.75
2018-05-16T10:06:48.838Z,19.00
2018-05-16T10:09:24.243Z,17.25
2018-05-16T10:11:54.843Z,20.00
2018-05-16T10:14:27.843Z,19.75
2018-05-16T10:17:00.334Z,20.00
2018-05-16T10:22:07.653Z,19.75
2018-05-16T10:24:39.821Z,17.50
2018-05-16T10:27:27.247Z,18.25
2018-05-16T10:30:05.865Z,18.00
2018-05-16T10:32:51.025Z,18.75
2018-05-16T10:35:22.591Z,17.00
2018-05-16T10:37:54.148Z,15.50
2018-05-16T10:41:28.738Z,15.75
2018-05-16T10:44:01.666Z,18.50
2018-05-16T10:46:33.673Z,16.00
2018-05-16T10:49:05.350Z,16.25
2018-05-16T10:51:36.863Z,17.00
2018-05-16T10:54:07.365Z,17.00
2018-05-16T10:56:37.989Z,18.25
2018-05-16T10:59:09.322Z,19.25
2018-05-16T11:01:40.603Z,18.00
2018-05-16T11:04:11.940Z,20.50
2018-05-16T11:06:53.562Z,20.75
2018-05-16T11:09:25.561Z,18.50
2018-05-16T11:11:57.455Z,19.00
2018-05-16T11:14:29.746Z,18.75
2018-05-16T11:17:00.606Z,18.75
2018-05-16T11:19:31.640Z,19.25
2018-05-16T11:22:03.583Z,18.00
2018-05-16T11:24:40.491Z,18.50
2018-05-16T11:27:13.477Z,18.00
2018-05-16T11:29:45.426Z,17.75
2018-05-16T11:32:21.486Z,18.00
2018-05-16T11:34:53.429Z,18.75
2018-05-16T11:40:11.867Z,16.50
2018-05-16T11:45:29.388Z,16.00
2018-05-16T11:48:00.267Z,16.50
2018-05-16T11:50:31.178Z,18.25
2018-05-16T11:53:01.756Z,16.25
2018-05-16T11:55:33.716Z,14.50
2018-05-16T11:58:04.343Z,13.25
2018-05-16T12:00:36.030Z,12.00
2018-05-16T12:03:07.255Z,11.50
2018-05-16T12:05:37.809Z,11.50
2018-05-16T12:08:16.113Z,9.75
2018-05-16T12:10:48.980Z,10.25
2018-05-16T12:13:22.668Z,12.25
2018-05-16T12:15:54.493Z,11.00
2018-05-16T12:18:25.561Z,11.50
2018-05-16T12:21:11.059Z,11.25
2018-05-16T12:23:57.524Z,11.00
2018-05-16T12:26:41.340Z,11.00
2018-05-16T12:29:16.114Z,12.00
2018-05-16T12:31:47.391Z,11.00
2018-05-16T12:34:18.424Z,12.00
2018-05-16T12:36:50.057Z,11.00
2018-05-16T12:39:21.928Z,10.50
2018-05-16T12:45:09.195Z,10.25
2018-05-16T12:47:45.489Z,10.00
2018-05-16T12:50:18.728Z,10.00
2018-05-16T12:53:03.483Z,9.75
2018-05-16T12:55:35.628Z,11.00
2018-05-16T12:58:08.305Z,10.50
2018-05-16T13:00:39.528Z,12.00
2018-05-16T13:03:10.242Z,11.50
2018-05-16T13:05:42.823Z,9.50
2018-05-16T13:08:26.773Z,10.00
2018-05-16T13:11:01.733Z,10.00
2018-05-16T13:13:34.048Z,10.25
2018-05-16T13:16:06.664Z,9.75
2018-05-16T13:18:38.925Z,10.00
2018-05-16T13:21:09.993Z,10.50
2018-05-16T13:23:41.210Z,10.50
2018-05-16T13:26:12.201Z,8.25
2018-05-16T13:28:44.743Z,9.25
2018-05-16T13:31:16.908Z,9.75
2018-05-16T13:33:48.078Z,10.50
2018-05-16T13:36:20.856Z,10.25
2018-05-16T13:38:52.015Z,10.75
2018-05-16T13:41:23.156Z,11.75
2018-05-16T13:43:55.668Z,10.25
2018-05-16T13:46:29.125Z,10.00
2018-05-16T13:49:16.026Z,11.00
2018-05-16T13:51:46.452Z,11.25
2018-05-16T13:54:18.126Z,11.00
2018-05-16T13:56:48.511Z,11.00
2018-05-16T13:59:19.507Z,11.25
2018-05-16T14:01:50.646Z,9.75
2018-05-16T14:04:21.543Z,10.25
2018-05-16T14:07:03.912Z,11.00
2018-05-16T14:09:36.523Z,10.00
2018-05-16T14:12:16.204Z,10.75
2018-05-16T14:14:49.870Z,12.25
2018-05-16T14:17:22.804Z,12.75
2018-05-16T14:19:54.082Z,10.75
2018-05-16T14:22:28.133Z,12.75
2018-05-16T14:25:04.145Z,13.00
2018-05-16T14:27:41.037Z,12.25
2018-05-16T14:30:15.479Z,13.50
2018-05-16T14:33:04.308Z,11.00
2018-05-16T14:35:42.889Z,12.00
2018-05-16T14:38:20.186Z,13.75
2018-05-16T14:40:51.386Z,13.50
2018-05-16T14:43:34.130Z,12.25
2018-05-16T14:46:08.593Z,12.00
2018-05-16T14:48:41.581Z,13.00
2018-05-16T14:51:13.155Z,12.25
2018-05-16T14:53:45.964Z,10.75
2018-05-16T14:56:17.254Z,12.50
2018-05-16T14:58:47.868Z,12.00
2018-05-16T15:01:19.428Z,15.25
2018-05-16T15:03:56.546Z,12.25
2018-05-16T15:06:27.584Z,12.75
2018-05-16T15:09:07.090Z,13.00
2018-05-16T15:11:38.549Z,12.00
2018-05-16T15:14:15.973Z,14.50
2018-05-16T15:16:48.208Z,13.75
2018-05-16T15:19:19.004Z,12.75
2018-05-16T15:21:54.378Z,13.00
2018-05-16T15:24:26.280Z,14.00
2018-05-16T15:27:00.816Z,14.25
2018-05-16T15:29:35.472Z,13.25
2018-05-16T15:32:12.123Z,14.75
2018-05-16T15:37:29.588Z,13.75
2018-05-16T15:40:07.300Z,13.75
2018-05-16T15:42:42.427Z,15.25
2018-05-16T15:45:22.830Z,13.00
2018-05-16T15:47:59.195Z,12.75
2018-05-16T15:50:32.313Z,16.75
2018-05-16T15:53:22.852Z,20.50
2018-05-16T15:56:14.804Z,22.00
2018-05-16T16:01:49.503Z,22.00
2018-05-16T16:04:30.539Z,22.00
2018-05-16T16:07:06.545Z,22.50
2018-05-16T16:09:41.511Z,22.50
2018-05-16T16:12:24.686Z,22.25
2018-05-16T16:15:22.477Z,22.25
2018-05-16T16:17:53.559Z,23.00
2018-05-16T16:20:26.293Z,24.00
2018-05-16T16:23:03.811Z,26.00
2018-05-16T16:25:57.857Z,26.00
2018-05-16T16:28:31.092Z,26.25
2018-05-16T16:31:05.555Z,23.00
2018-05-16T16:33:41.704Z,24.00
2018-05-16T16:36:19.795Z,24.25
2018-05-16T16:39:02.108Z,26.00
2018-05-16T16:44:42.492Z,24.00
2018-05-16T16:47:18.609Z,26.25
2018-05-16T16:49:55.846Z,27.75
2018-05-16T16:52:36.933Z,27.00
2018-05-16T16:55:15.204Z,32.75
2018-05-16T16:57:50.349Z,26.00
2018-05-16T17:00:26.600Z,25.25
2018-05-16T17:03:09.472Z,26.00
2018-05-16T17:05:42.656Z,23.75
2018-05-16T17:08:15.292Z,24.75
2018-05-16T17:10:49.011Z,25.00
2018-05-16T17:13:20.596Z,25.50
2018-05-16T17:15:52.994Z,26.00
2018-05-16T17:18:31.226Z,26.25
2018-05-16T17:21:04.767Z,24.25
2018-05-16T17:23:40.283Z,18.25
2018-05-16T17:26:21.450Z,18.75
2018-05-16T17:29:09.902Z,18.00
2018-05-16T17:31:45.746Z,20.00
2018-05-16T17:36:57.154Z,18.00
2018-05-16T17:39:29.335Z,17.00
2018-05-16T17:44:40.947Z,18.00
2018-05-16T17:47:19.415Z,17.00
2018-05-16T17:49:53.606Z,20.00
2018-05-16T17:52:28.691Z,21.25
2018-05-16T17:54:59.785Z,20.75
2018-05-16T17:57:42.466Z,19.75
2018-05-16T18:00:21.770Z,18.75
2018-05-16T18:02:53.578Z,19.50
2018-05-16T18:05:34.608Z,18.75
2018-05-16T18:08:17.055Z,19.25
2018-05-16T18:10:52.936Z,21.50
2018-05-16T18:17:52.044Z,22.00
2018-05-16T18:20:23.662Z,21.00
2018-05-16T18:23:07.138Z,22.00
2018-05-16T18:25:39.600Z,21.50
2018-05-16T18:28:26.366Z,18.00
2018-05-16T18:31:06.707Z,21.00
2018-05-16T18:36:37.386Z,22.75
2018-05-16T18:39:12.487Z,22.00
2018-05-16T18:42:20.146Z,22.25
2018-05-16T18:47:53.480Z,17.50
2018-05-16T18:50:26.881Z,16.50
2018-05-16T18:52:58.751Z,19.00
2018-05-16T18:55:31.274Z,16.50
2018-05-16T18:58:03.279Z,20.00
2018-05-16T19:00:34.332Z,20.25
2018-05-16T19:03:05.843Z,16.00
2018-05-16T19:05:43.668Z,15.50
2018-05-16T19:08:19.136Z,20.75
2018-05-16T19:10:53.898Z,20.00
2018-05-16T19:13:25.766Z,21.50
2018-05-16T19:16:05.510Z,22.00
2018-05-16T19:18:37.522Z,24.75
2018-05-16T19:21:18.845Z,21.75
2018-05-16T19:24:01.938Z,22.00
2018-05-16T19:26:35.275Z,19.75
2018-05-16T19:29:06.360Z,19.00
2018-05-16T19:31:45.205Z,19.00
2018-05-16T19:34:21.633Z,17.75
2018-05-16T19:36:52.813Z,19.75
2018-05-16T19:39:23.984Z,18.75
2018-05-16T19:41:55.452Z,24.75
2018-05-16T19:44:26.193Z,18.25
2018-05-16T19:46:57.400Z,20.75
2018-05-16T19:49:28.677Z,19.00
2018-05-16T19:51:59.020Z,21.00
2018-05-16T19:54:30.562Z,55.50
2018-05-16T19:57:01.747Z,20.50
2018-05-16T19:59:36.710Z,22.00
2018-05-16T20:02:09.350Z,21.00
2018-05-16T20:04:40.008Z,16.25
2018-05-16T20:07:10.359Z,13.00
2018-05-16T20:10:11.494Z,14.00
2018-05-16T20:12:43.700Z,12.75
2018-05-16T20:15:18.183Z,11.75
2018-05-16T20:17:49.454Z,13.00
2018-05-16T20:20:20.208Z,14.25
2018-05-16T20:22:54.626Z,11.25
2018-05-16T20:25:27.397Z,15.00
2018-05-16T20:28:11.114Z,12.00
2018-05-16T20:30:46.420Z,14.00
2018-05-16T20:33:18.158Z,12.75
2018-05-16T20:35:50.128Z,12.75
2018-05-16T20:38:20.873Z,13.75
2018-05-16T20:40:57.066Z,15.00
2018-05-16T20:43:28.437Z,14.75
2018-05-16T20:45:59.834Z,14.00
2018-05-16T20:48:31.305Z,15.00
2018-05-16T20:51:02.101Z,14.00
2018-05-16T20:53:41.792Z,12.25
2018-05-16T20:56:14.310Z,13.00
2018-05-16T20:58:46.105Z,13.50
2018-05-16T21:01:18.346Z,12.50
2018-05-16T21:03:51.554Z,13.25
2018-05-16T21:06:22.613Z,14.75
2018-05-16T21:08:53.041Z,14.50
2018-05-16T21:11:26.554Z,14.00
2018-05-16T21:13:59.220Z,15.00
2018-05-16T21:16:30.654Z,15.25
2018-05-16T21:19:01.832Z,15.00
2018-05-16T21:21:32.169Z,15.75
2018-05-16T21:24:05.719Z,16.00
2018-05-16T21:26:37.081Z,15.75
2018-05-16T21:32:03.234Z,16.25
2018-05-16T21:34:33.713Z,13.25
2018-05-16T21:37:05.316Z,16.00
2018-05-16T21:39:36.786Z,17.00
2018-05-16T21:42:08.831Z,15.75
2018-05-16T21:44:43.268Z,14.50
2018-05-16T21:47:18.329Z,16.50
2018-05-16T21:49:52.048Z,14.50
2018-05-16T21:52:24.977Z,14.00
2018-05-16T21:55:03.391Z,15.25
2018-05-16T21:57:40.519Z,13.75
2018-05-16T22:00:27.497Z,13.00
2018-05-16T22:02:58.268Z,14.75
2018-05-16T22:05:29.049Z,14.50
2018-05-16T22:10:44.880Z,11.00
2018-05-16T22:13:17.442Z,12.00
2018-05-16T22:15:49.291Z,10.25
2018-05-16T22:18:23.235Z,11.00
2018-05-16T22:20:54.009Z,11.00
2018-05-16T22:23:29.057Z,10.75
2018-05-16T22:26:03.450Z,10.75
2018-05-16T22:28:39.495Z,10.00
2018-05-16T22:31:19.564Z,10.00
2018-05-16T22:33:56.553Z,10.25
2018-05-16T22:36:35.952Z,10.00
2018-05-16T22:39:18.840Z,10.50
2018-05-16T22:41:58.676Z,10.75
2018-05-16T22:44:29.910Z,10.25
2018-05-16T22:49:57.610Z,11.25
2018-05-16T22:52:28.319Z,9.00
2018-05-16T22:54:58.691Z,10.75
2018-05-16T22:57:29.058Z,10.50
2018-05-16T22:59:59.798Z,7.00
2018-05-16T23:02:31.826Z,10.00
2018-05-16T23:05:04.154Z,9.00
2018-05-16T23:07:34.616Z,9.00
2018-05-16T23:10:05.160Z,8.00
2018-05-16T23:12:35.892Z,8.75
2018-05-16T23:15:07.114Z,7.00
2018-05-16T23:17:42.354Z,7.00
2018-05-16T23:20:15.437Z,7.75
2018-05-16T23:22:46.175Z,9.50
2018-05-16T23:25:16.677Z,7.75
2018-05-16T23:27:47.207Z,8.25
2018-05-16T23:30:18.303Z,9.50
2018-05-16T23:32:51.479Z,8.00
2018-05-16T23:35:33.929Z,8.25
2018-05-16T23:38:05.742Z,7.75
2018-05-16T23:40:45.067Z,9.75
2018-05-16T23:43:17.857Z,6.25
2018-05-16T23:45:49.096Z,7.50
2018-05-16T23:48:19.497Z,9.00
2018-05-16T23:50:50.279Z,7.00
2018-05-16T23:53:20.639Z,7.00
2018-05-16T23:55:51.703Z,6.75
2018-05-16T23:58:23.172Z,7.75
